Terminal Aerodrome Forecast
Issued by NWS Raleigh/Durham, NC

Home | Current Version | Previous Version | Text Only | Print | Product List | Glossary On
Versions: 1 2 3 4 5 6 7 8 9 10 11 12 13 14 15 16 17 18 19 20 21 22 23 24 25
000
FTUS42 KRAH 231134
TAFRDU
TAF
KRDU 231134Z 2312/2412 04005KT 5SM BR OVC007
     FM231700 15002KT 6SM BR OVC015
     FM232000 22006KT P6SM OVC050
     FM240800 22002KT 5SM BR BKN015
      TEMPO 2410/2412 1SM BR BKN007=

USA.gov is the U.S. government's official web portal to all federal, state and local government web resources and services.